createdAt,value
2022-11-29T00:12:11.882Z,62.82
2022-11-29T00:41:12.828Z,62.82
2022-11-29T01:10:14.881Z,62.85
2022-11-29T01:39:07.154Z,62.85
2022-11-29T02:08:01.390Z,62.87
2022-11-29T02:37:12.146Z,62.86
2022-11-29T03:05:45.708Z,62.88
2022-11-29T03:34:48.177Z,62.9
2022-11-29T04:03:22.048Z,62.92
2022-11-29T04:32:25.071Z,62.92
2022-11-29T05:01:28.207Z,62.93
2022-11-29T05:30:25.504Z,62.95
2022-11-29T05:59:20.262Z,62.94
2022-11-29T06:28:16.697Z,62.97
2022-11-29T06:57:07.656Z,62.97
2022-11-29T07:25:52.314Z,62.97
2022-11-29T07:54:38.162Z,62.98
2022-11-29T08:23:31.810Z,63.01
2022-11-29T08:52:27.887Z,63.01
2022-11-29T09:20:56.177Z,63
2022-11-29T09:49:44.749Z,63.02
2022-11-29T10:18:41.985Z,63.03
2022-11-29T10:47:40.955Z,63.05
2022-11-29T11:16:38.343Z,63.06
2022-11-29T11:45:02.266Z,63.06
2022-11-29T12:13:34.442Z,63.05
2022-11-29T12:42:18.446Z,63.25
2022-11-29T13:11:01.654Z,63.34
2022-11-29T13:39:45.195Z,63.26
2022-11-29T14:08:26.157Z,63.32
2022-11-29T14:37:14.936Z,63.22
2022-11-29T15:06:06.118Z,63.22
2022-11-29T15:34:50.496Z,63.22
2022-11-29T16:03:39.637Z,63.24
2022-11-29T16:32:32.030Z,63.23
2022-11-29T17:01:09.089Z,63.23
2022-11-29T17:29:53.096Z,64.63
2022-11-29T17:58:43.567Z,64.77
2022-11-29T18:27:18.606Z,64.9
2022-11-29T18:56:00.682Z,65.01
2022-11-29T19:24:42.552Z,65.08
2022-11-29T19:53:23.571Z,65.14
2022-11-29T20:22:04.521Z,65.12
2022-11-29T20:50:54.800Z,65.08
2022-11-29T21:19:40.057Z,65.11
2022-11-29T21:48:13.512Z,65.01
2022-11-29T22:16:53.497Z,65
2022-11-29T22:45:33.629Z,65.1
2022-11-29T23:14:19.684Z,65.17
2022-11-29T23:43:05.820Z,65.25
